Mantua, Ohio
Current Conditions -  °F | °C
As of 8:37 PM on Wednesday 22 Oct 2014 (Local Time) from KPOV Reporting Station
Scattered Clouds Scattered Clouds  
Wind Chill: 44°   Ceiling: Unl
Heat Index: 46°   Visibility: 10mi
Dew Point: 42°   Wind: 5mph
Humidity: 85%   Direction: 300°WNW
Pressure: 30.22"   Gusts: NA
Location:  41.28°N, 81.22°W
Report Text: KPOV 230037Z AUTO 30004KT 10SM SCT038 08/05 A3022 RMK AO2 T00770053
Loading
Personal Weather Stations






























Interactive Weather Map
Tropical Storm Tracking
New forecast layout! Learn more

10-Day Weather Forecast

Advertisements
Track Severe Weather on mobile